Time;durP1;ratioP1;P1;durP2;ratioP2;P2;SDS_P1;SDS_P2;PMS_P1;PMS_P2;Temp;Humidity;BMP_temperature;BMP_pressure;BME280_temperature;BME280_humidity;BME280_pressure;Samples;Min_cycle;Max_cycle;Signal;HPM_P1;HPM_P2
2022/10/26 00:00:51;;;;;;;0.10;0.10;;;17.10;94.70;;;;;;4016805;29;20433;-63
2022/10/26 00:03:31;;;;;;;0.00;0.00;;;17.10;94.70;;;;;;4017240;29;20532;-63
2022/10/26 00:06:14;;;;;;;0.00;0.00;;;17.10;94.80;;;;;;4017172;29;20120;-63
2022/10/26 00:08:57;;;;;;;0.00;0.00;;;17.10;94.70;;;;;;4014557;29;20061;-63
2022/10/26 00:11:38;;;;;;;0.00;0.00;;;17.10;94.70;;;;;;4017152;29;20068;-63
2022/10/26 00:14:19;;;;;;;0.00;0.00;;;17.10;94.80;;;;;;4017001;29;20065;-63
2022/10/26 00:17:00;;;;;;;0.10;0.10;;;17.10;94.80;;;;;;4014575;29;20076;-63
2022/10/26 00:19:42;;;;;;;0.00;0.00;;;17.10;94.80;;;;;;4015086;29;20577;-64
2022/10/26 00:22:22;;;;;;;0.00;0.00;;;17.10;94.80;;;;;;4001720;29;20105;-63
2022/10/26 00:25:05;;;;;;;0.00;0.00;;;17.10;94.80;;;;;;4002163;29;20118;-63
2022/10/26 00:27:46;;;;;;;1.20;1.10;;;17.10;94.80;;;;;;4016340;29;20056;-63
2022/10/26 00:30:27;;;;;;;0.00;0.00;;;17.00;94.80;;;;;;4016559;29;20067;-63
2022/10/26 00:33:12;;;;;;;0.00;0.00;;;17.00;94.90;;;;;;4016494;29;20056;-64
2022/10/26 00:35:54;;;;;;;0.00;0.00;;;17.10;95.20;;;;;;4016416;29;20060;-63
2022/10/26 00:38:34;;;;;;;;;;;17.10;94.90;;;;;;4017005;29;20065;-63
2022/10/26 00:41:18;;;;;;;0.10;0.10;;;17.10;94.90;;;;;;4016900;29;19931;-63
2022/10/26 00:43:59;;;;;;;0.00;0.00;;;17.00;94.80;;;;;;4008754;29;20141;-63
2022/10/26 00:46:43;;;;;;;0.47;0.47;;;17.00;94.80;;;;;;4016518;29;20157;-64
2022/10/26 00:49:23;;;;;;;0.00;0.00;;;17.00;94.90;;;;;;4000929;29;20061;-63
2022/10/26 00:52:06;;;;;;;0.10;0.10;;;17.00;95.30;;;;;;4001194;29;20056;-64
2022/10/26 00:54:47;;;;;;;0.00;0.00;;;17.00;94.90;;;;;;4000946;29;20061;-64
2022/10/26 00:57:30;;;;;;;0.00;0.00;;;17.00;94.90;;;;;;4002134;29;20064;-63
2022/10/26 01:00:11;;;;;;;0.00;0.00;;;17.00;94.90;;;;;;4007732;29;20401;-64
2022/10/26 01:02:54;;;;;;;0.00;0.00;;;17.00;94.90;;;;;;4015729;29;20055;-63
2022/10/26 01:05:38;;;;;;;0.00;0.00;;;17.00;94.90;;;;;;4007151;29;20065;-63
2022/10/26 01:08:27;;;;;;;0.00;0.00;;;17.00;94.90;;;;;;4005632;29;20056;-64
2022/10/26 01:11:07;;;;;;;1.85;0.52;;;17.00;94.90;;;;;;4014344;29;20064;-63
2022/10/26 01:13:57;;;;;;;0.10;0.10;;;17.00;95.00;;;;;;3984531;29;20060;-63
2022/10/26 01:16:57;;;;;;;0.25;0.25;;;17.00;95.00;;;;;;3990548;29;20060;-64
2022/10/26 01:20:19;;;;;;;0.03;0.03;;;16.90;95.00;;;;;;3987621;29;20056;-64
2022/10/26 01:23:06;;;;;;;0.00;0.00;;;16.90;95.00;;;;;;3985325;29;20532;-64
2022/10/26 01:26:18;;;;;;;9.23;1.90;;;16.90;95.00;;;;;;4008698;29;20201;-64
2022/10/26 01:29:52;;;;;;;0.00;0.00;;;16.90;95.00;;;;;;4014253;29;20104;-63
2022/10/26 01:32:44;;;;;;;0.00;0.00;;;16.90;95.00;;;;;;4004915;29;21657;-64
2022/10/26 01:35:30;;;;;;;0.05;0.05;;;16.90;95.00;;;;;;4015705;29;20069;-63
2022/10/26 01:38:28;;;;;;;0.00;0.00;;;16.90;95.00;;;;;;4010086;29;20113;-64
2022/10/26 01:41:15;;;;;;;0.00;0.00;;;16.90;95.00;;;;;;4005879;29;20072;-64
2022/10/26 01:44:13;;;;;;;0.00;0.00;;;16.90;95.00;;;;;;3979530;29;20060;-64
2022/10/26 01:46:58;;;;;;;0.00;0.00;;;16.90;95.00;;;;;;3998906;29;20060;-63
2022/10/26 01:49:45;;;;;;;0.00;0.00;;;16.90;95.00;;;;;;4013949;29;20105;-64
2022/10/26 01:52:27;;;;;;;0.00;0.00;;;16.90;95.00;;;;;;4014095;29;20057;-63
2022/10/26 01:55:40;;;;;;;0.00;0.00;;;16.80;95.00;;;;;;3989143;29;20082;-64
2022/10/26 01:58:52;;;;;;;1.95;0.63;;;16.90;95.00;;;;;;3999892;29;20060;-64
2022/10/26 02:01:56;;;;;;;0.00;0.00;;;16.80;95.00;;;;;;3991037;29;20088;-64
2022/10/26 02:04:50;;;;;;;0.00;0.00;;;16.90;95.00;;;;;;3982198;29;20056;-64
2022/10/26 02:07:37;;;;;;;0.47;0.47;;;16.80;95.00;;;;;;4004435;29;20057;-64
2022/10/26 02:10:27;;;;;;;0.10;0.10;;;16.80;95.00;;;;;;4015796;29;20064;-64
2022/10/26 02:13:15;;;;;;;0.00;0.00;;;16.80;95.00;;;;;;4015448;29;20061;-64
2022/10/26 02:16:01;;;;;;;0.00;0.00;;;16.80;95.00;;;;;;4015997;29;20060;-65
2022/10/26 02:18:46;;;;;;;0.98;0.98;;;16.80;95.00;;;;;;4015716;29;20057;-64
2022/10/26 02:21:34;;;;;;;0.55;0.35;;;16.80;95.00;;;;;;4015687;29;20057;-65
2022/10/26 02:24:16;;;;;;;0.00;0.00;;;16.80;95.00;;;;;;4001013;29;20418;-65
2022/10/26 02:26:59;;;;;;;0.50;0.50;;;16.80;95.00;;;;;;4003520;29;20129;-64
2022/10/26 02:29:42;;;;;;;0.00;0.00;;;16.80;95.00;;;;;;4003454;29;20053;-64
2022/10/26 02:32:26;;;;;;;0.00;0.00;;;16.80;95.00;;;;;;4015283;29;20053;-64
2022/10/26 02:35:07;;;;;;;0.40;0.40;;;16.80;95.00;;;;;;4018567;29;20056;-64
2022/10/26 02:37:52;;;;;;;0.17;0.17;;;16.80;95.00;;;;;;4018600;29;20117;-64
2022/10/26 02:40:35;;;;;;;0.00;0.00;;;16.70;95.00;;;;;;4017936;29;20057;-65
2022/10/26 02:43:20;;;;;;;0.00;0.00;;;16.80;95.00;;;;;;4013577;29;20052;-65
2022/10/26 02:46:07;;;;;;;0.00;0.00;;;16.80;95.00;;;;;;4018464;29;20137;-65
2022/10/26 02:48:48;;;;;;;0.15;0.15;;;16.80;95.00;;;;;;4018122;29;20167;-64
2022/10/26 02:51:34;;;;;;;0.10;0.10;;;16.80;95.40;;;;;;4018094;29;20124;-64
2022/10/26 02:54:25;;;;;;;0.00;0.00;;;16.70;95.00;;;;;;4003445;29;20518;-64
2022/10/26 02:57:11;;;;;;;0.10;0.10;;;16.70;95.00;;;;;;4003073;29;20125;-64
2022/10/26 02:59:53;;;;;;;0.00;0.00;;;16.70;95.00;;;;;;4003142;29;20151;-65
2022/10/26 03:02:34;;;;;;;0.00;0.00;;;16.70;95.00;;;;;;4015874;29;20064;-65
2022/10/26 03:05:19;;;;;;;1.00;1.00;;;16.70;95.00;;;;;;4007583;29;20555;-64
2022/10/26 03:08:01;;;;;;;0.15;0.15;;;16.70;95.00;;;;;;4018246;29;20069;-64
2022/10/26 03:10:45;;;;;;;0.00;0.00;;;16.70;95.00;;;;;;4017933;29;20129;-64
2022/10/26 03:13:25;;;;;;;0.00;0.00;;;16.70;95.00;;;;;;4016340;29;20052;-65
2022/10/26 03:16:07;;;;;;;0.00;0.00;;;16.70;95.00;;;;;;4017968;29;20068;-65
2022/10/26 03:18:47;;;;;;;0.40;0.40;;;16.70;95.00;;;;;;4018162;29;20911;-65
2022/10/26 03:21:28;;;;;;;0.00;0.00;;;16.70;95.00;;;;;;4017721;29;20060;-65
2022/10/26 03:24:09;;;;;;;0.30;0.30;;;16.70;95.00;;;;;;4017818;29;20129;-64
2022/10/26 03:26:51;;;;;;;0.00;0.00;;;16.60;94.90;;;;;;4017985;29;20507;-64
2022/10/26 03:29:33;;;;;;;0.00;0.00;;;16.60;94.90;;;;;;4017822;29;20501;-65
2022/10/26 03:32:14;;;;;;;0.00;0.00;;;16.60;95.30;;;;;;4017467;29;20129;-64
2022/10/26 03:34:55;;;;;;;1.23;0.68;;;16.60;94.90;;;;;;4017418;29;20061;-65
2022/10/26 03:37:36;;;;;;;0.00;0.00;;;16.60;94.90;;;;;;4017595;29;20084;-64
2022/10/26 03:40:17;;;;;;;0.00;0.00;;;16.60;94.90;;;;;;4017210;29;20108;-64
2022/10/26 03:43:00;;;;;;;0.00;0.00;;;16.60;94.90;;;;;;4017333;29;20545;-64
2022/10/26 03:45:40;;;;;;;0.20;0.20;;;16.60;95.00;;;;;;4017443;29;20535;-64
2022/10/26 03:48:21;;;;;;;0.00;0.00;;;16.60;95.00;;;;;;4017011;29;20052;-64
2022/10/26 03:51:02;;;;;;;0.00;0.00;;;16.60;95.00;;;;;;4016892;29;20052;-64
2022/10/26 03:53:43;;;;;;;0.25;0.25;;;16.60;94.90;;;;;;4001931;29;20056;-64
2022/10/26 03:56:24;;;;;;;0.08;0.08;;;16.60;94.90;;;;;;4002134;29;20061;-65
2022/10/26 03:59:07;;;;;;;0.00;0.00;;;16.60;94.90;;;;;;4012895;29;20509;-64
2022/10/26 04:01:47;;;;;;;1.15;1.15;;;16.60;94.90;;;;;;4017068;29;20186;-64
2022/10/26 04:04:30;;;;;;;0.00;0.00;;;16.60;94.90;;;;;;4017365;29;20201;-64
2022/10/26 04:07:11;;;;;;;0.00;0.00;;;16.60;94.90;;;;;;4017318;29;20089;-64
2022/10/26 04:09:52;;;;;;;0.22;0.22;;;16.60;94.90;;;;;;4001665;29;20069;-64
2022/10/26 04:12:36;;;;;;;0.08;0.08;;;16.50;94.90;;;;;;4012105;29;20185;-64
2022/10/26 04:15:18;;;;;;;0.00;0.00;;;16.50;94.90;;;;;;4017039;29;20889;-64
2022/10/26 04:18:01;;;;;;;0.20;0.20;;;16.50;94.90;;;;;;4016622;29;20064;-64
2022/10/26 04:20:42;;;;;;;0.00;0.00;;;16.50;94.90;;;;;;4017432;29;20114;-64
2022/10/26 04:23:24;;;;;;;0.10;0.10;;;16.50;94.90;;;;;;4001950;29;20190;-64
2022/10/26 04:26:09;;;;;;;0.00;0.00;;;16.50;94.90;;;;;;4001923;29;20666;-64
2022/10/26 04:28:50;;;;;;;0.00;0.00;;;16.50;95.10;;;;;;4010112;29;20106;-64
2022/10/26 04:31:33;;;;;;;0.00;0.00;;;16.50;94.90;;;;;;4015152;29;20060;-65
2022/10/26 04:34:14;;;;;;;0.00;0.00;;;16.50;94.90;;;;;;3999259;29;20057;-64
2022/10/26 04:36:55;;;;;;;0.20;0.20;;;16.50;94.90;;;;;;4001708;29;20546;-64
2022/10/26 04:39:36;;;;;;;0.00;0.00;;;16.50;95.00;;;;;;4012811;29;20060;-64
2022/10/26 04:42:17;;;;;;;0.17;0.17;;;16.40;94.90;;;;;;4015203;29;20065;-64
2022/10/26 04:44:58;;;;;;;0.00;0.00;;;16.40;94.90;;;;;;4014234;29;20485;-64
2022/10/26 04:47:41;;;;;;;0.00;0.00;;;16.40;95.00;;;;;;4013346;29;20514;-64
2022/10/26 04:50:22;;;;;;;5.38;0.98;;;16.40;95.00;;;;;;4001144;29;20419;-64
2022/10/26 04:53:04;;;;;;;0.17;0.17;;;16.40;95.00;;;;;;4014062;29;20084;-64
2022/10/26 04:55:45;;;;;;;0.00;0.00;;;16.40;94.90;;;;;;4016775;29;20060;-64
2022/10/26 04:58:26;;;;;;;0.00;0.00;;;16.40;94.90;;;;;;4016074;29;20358;-64
2022/10/26 05:01:07;;;;;;;0.00;0.00;;;16.40;94.90;;;;;;4016215;29;20068;-64
2022/10/26 05:03:51;;;;;;;0.00;0.00;;;16.40;94.90;;;;;;4001259;29;20458;-64
2022/10/26 05:06:32;;;;;;;0.00;0.00;;;16.40;94.90;;;;;;4015536;29;20060;-64
2022/10/26 05:09:14;;;;;;;0.00;0.00;;;16.40;94.90;;;;;;4015596;29;20136;-65
2022/10/26 05:11:54;;;;;;;0.00;0.00;;;16.40;95.00;;;;;;4016061;29;20092;-63
2022/10/26 05:14:35;;;;;;;0.00;0.00;;;16.40;94.90;;;;;;4001834;29;20060;-63
2022/10/26 05:17:16;;;;;;;2.22;1.58;;;16.40;95.00;;;;;;4001568;29;20172;-64
2022/10/26 05:20:04;;;;;;;0.13;0.13;;;16.40;95.00;;;;;;3986518;29;20117;-64
2022/10/26 05:22:52;;;;;;;0.00;0.00;;;16.40;94.90;;;;;;4013607;29;20053;-65
2022/10/26 05:25:36;;;;;;;0.15;0.15;;;16.40;94.90;;;;;;4001570;29;20267;-64
2022/10/26 05:28:18;;;;;;;0.00;0.00;;;16.40;94.90;;;;;;4015980;29;20060;-64
2022/10/26 05:30:59;;;;;;;0.00;0.00;;;16.30;94.90;;;;;;4015845;29;20064;-64
2022/10/26 05:33:39;;;;;;;0.15;0.15;;;16.40;95.00;;;;;;4016387;29;20182;-64
2022/10/26 05:36:22;;;;;;;1.42;1.42;;;16.30;94.90;;;;;;4015970;29;20105;-64
2022/10/26 05:39:02;;;;;;;0.10;0.10;;;16.30;94.90;;;;;;4016154;29;20060;-64
2022/10/26 05:41:43;;;;;;;0.00;0.00;;;16.30;94.90;;;;;;4016228;29;20048;-63
2022/10/26 05:44:24;;;;;;;0.00;0.00;;;16.30;94.90;;;;;;4006625;29;20060;-64
2022/10/26 05:47:07;;;;;;;0.00;0.00;;;16.30;94.90;;;;;;4000726;29;20077;-64
2022/10/26 05:49:51;;;;;;;0.00;0.00;;;16.30;95.00;;;;;;3992867;29;20114;-64
2022/10/26 05:52:42;;;;;;;4.68;1.83;;;16.30;94.90;;;;;;3999968;29;20194;-64
2022/10/26 05:55:26;;;;;;;0.00;0.00;;;16.30;94.90;;;;;;4001114;29;20057;-64
2022/10/26 05:58:11;;;;;;;0.10;0.10;;;16.30;94.90;;;;;;3999509;29;20061;-66
2022/10/26 06:01:06;;;;;;;0.00;0.00;;;16.30;95.00;;;;;;3978408;29;20067;-63
2022/10/26 06:04:07;;;;;;;0.30;0.30;;;16.30;95.20;;;;;;3969311;29;20061;-64
2022/10/26 06:06:53;;;;;;;1.80;1.65;;;16.40;95.30;;;;;;3973956;29;20065;-64
2022/10/26 06:09:36;;;;;;;0.08;0.08;;;16.40;95.20;;;;;;3987179;29;20060;-63
2022/10/26 06:12:18;;;;;;;0.00;0.00;;;16.40;95.10;;;;;;4003458;29;20065;-63
2022/10/26 06:15:02;;;;;;;0.03;0.03;;;16.30;95.10;;;;;;4002763;29;20094;-64
2022/10/26 06:17:55;;;;;;;0.00;0.00;;;16.40;95.10;;;;;;3992914;29;20065;-64
2022/10/26 06:20:52;;;;;;;0.00;0.00;;;16.30;95.10;;;;;;4003354;29;20057;-64
2022/10/26 06:23:50;;;;;;;0.00;0.00;;;16.30;95.10;;;;;;3976413;29;20593;-64
2022/10/26 06:26:42;;;;;;;0.13;0.13;;;16.30;95.10;;;;;;3998928;29;20398;-64
2022/10/26 06:29:35;;;;;;;0.00;0.00;;;16.30;95.10;;;;;;4000592;29;20142;-64
2022/10/26 06:32:19;;;;;;;0.00;0.00;;;16.30;95.10;;;;;;4014219;29;20508;-64
2022/10/26 06:35:19;;;;;;;0.05;0.05;;;16.30;95.10;;;;;;4009720;29;20068;-64
2022/10/26 06:38:04;;;;;;;0.00;0.00;;;16.30;95.10;;;;;;3992600;29;20093;-64
2022/10/26 06:40:55;;;;;;;0.70;0.70;;;16.30;95.10;;;;;;3990297;29;20056;-64
2022/10/26 06:43:38;;;;;;;0.00;0.00;;;16.30;95.50;;;;;;4002885;29;20137;-63
2022/10/26 06:46:30;;;;;;;10.13;3.35;;;16.30;96.10;;;;;;4017037;29;20104;-64
2022/10/26 06:49:19;;;;;;;0.00;0.00;;;16.30;96.90;;;;;;3992488;29;20068;-64
2022/10/26 06:52:07;;;;;;;0.25;0.25;;;16.30;97.10;;;;;;3977060;29;20057;-64
2022/10/26 06:54:51;;;;;;;3.53;2.90;;;16.30;97.10;;;;;;3997278;29;20084;-62
2022/10/26 06:57:35;;;;;;;8.70;1.70;;;16.30;96.90;;;;;;4017720;29;20545;-64
2022/10/26 07:00:22;;;;;;;0.00;0.00;;;16.30;96.80;;;;;;4009617;29;20409;-62
2022/10/26 07:03:02;;;;;;;0.00;0.00;;;16.30;96.70;;;;;;4018030;29;20060;-63
2022/10/26 07:05:44;;;;;;;1.40;1.38;;;16.30;96.50;;;;;;4017528;29;20052;-62
2022/10/26 07:08:26;;;;;;;0.03;0.03;;;16.30;96.30;;;;;;4018089;29;20145;-63
2022/10/26 07:11:08;;;;;;;0.52;0.52;;;16.30;96.20;;;;;;4017297;29;20519;-63
2022/10/26 07:13:50;;;;;;;0.47;0.47;;;16.30;96.10;;;;;;4017624;29;20088;-62
2022/10/26 07:16:32;;;;;;;0.10;0.10;;;16.30;96.00;;;;;;4017198;29;20060;-63
2022/10/26 07:19:13;;;;;;;1.98;1.38;;;16.30;96.00;;;;;;4010263;29;20052;-62
2022/10/26 07:21:55;;;;;;;0.30;0.30;;;16.30;95.90;;;;;;4017898;29;20151;-63
2022/10/26 07:24:36;;;;;;;0.00;0.00;;;16.30;96.20;;;;;;4014665;29;20068;-63
2022/10/26 07:27:18;;;;;;;0.00;0.00;;;16.20;95.70;;;;;;4016952;29;20141;-62
2022/10/26 07:29:59;;;;;;;0.45;0.45;;;16.20;95.90;;;;;;4017443;29;20517;-62
2022/10/26 07:32:41;;;;;;;0.10;0.10;;;16.20;95.40;;;;;;4017349;29;20101;-62
2022/10/26 07:35:21;;;;;;;1.75;1.63;;;16.20;95.30;;;;;;4017360;29;20060;-62
2022/10/26 07:38:03;;;;;;;2.70;2.38;;;16.20;95.40;;;;;;4017341;29;20056;-62
2022/10/26 07:40:43;;;;;;;0.30;0.30;;;16.20;95.30;;;;;;4017455;29;20165;-62
2022/10/26 07:43:24;;;;;;;0.10;0.10;;;16.30;95.30;;;;;;4015118;29;20519;-62
2022/10/26 07:46:05;;;;;;;1.20;1.20;;;16.20;95.20;;;;;;4002411;29;20060;-62
2022/10/26 07:48:48;;;;;;;1.17;1.08;;;16.20;95.10;;;;;;4008297;29;20808;-62
2022/10/26 07:51:29;;;;;;;1.55;1.35;;;16.20;95.10;;;;;;4017384;29;20076;-62
2022/10/26 07:54:10;;;;;;;0.00;0.00;;;16.20;95.10;;;;;;4017174;29;20056;-62
2022/10/26 07:56:51;;;;;;;0.00;0.00;;;16.20;95.10;;;;;;4012772;29;20060;-62
2022/10/26 07:59:31;;;;;;;0.00;0.00;;;16.20;95.10;;;;;;4017121;29;20068;-62
2022/10/26 08:02:12;;;;;;;0.00;0.00;;;16.20;95.10;;;;;;4017485;29;20080;-62
2022/10/26 08:04:54;;;;;;;0.00;0.00;;;16.20;95.00;;;;;;4017086;29;20193;-62
2022/10/26 08:07:41;;;;;;;0.13;0.13;;;16.20;95.10;;;;;;4016930;29;20057;-62
2022/10/26 08:10:22;;;;;;;0.22;0.22;;;16.20;95.00;;;;;;4017414;29;20185;-62
2022/10/26 08:13:03;;;;;;;0.00;0.00;;;16.30;95.00;;;;;;4017101;29;20056;-62
2022/10/26 08:15:44;;;;;;;1.08;0.63;;;16.20;95.10;;;;;;4016987;29;20060;-62
2022/10/26 08:18:26;;;;;;;0.28;0.28;;;16.20;95.30;;;;;;4016685;29;20076;-62
2022/10/26 08:21:12;;;;;;;0.80;0.80;;;16.30;95.50;;;;;;4016393;29;20734;-62
2022/10/26 08:23:55;;;;;;;0.00;0.00;;;16.30;95.50;;;;;;4016623;29;20100;-62
2022/10/26 08:26:36;;;;;;;1.80;1.45;;;16.30;95.50;;;;;;4016469;29;20064;-62
2022/10/26 08:29:17;;;;;;;14.00;3.53;;;16.30;95.50;;;;;;4016023;29;20061;-63
2022/10/26 08:31:58;;;;;;;0.00;0.00;;;16.30;95.30;;;;;;3994860;29;20052;-63
2022/10/26 08:34:38;;;;;;;0.00;0.00;;;16.30;95.20;;;;;;4014696;29;20053;-61
2022/10/26 08:37:21;;;;;;;0.00;0.00;;;16.30;95.20;;;;;;4014517;29;20289;-62
2022/10/26 08:40:02;;;;;;;0.30;0.30;;;16.30;95.20;;;;;;4013975;29;20069;-62
2022/10/26 08:42:49;;;;;;;0.00;0.00;;;16.30;95.20;;;;;;4013659;29;20069;-62
2022/10/26 08:45:37;;;;;;;0.00;0.00;;;16.30;95.60;;;;;;4009354;29;20125;-62
2022/10/26 08:48:24;;;;;;;0.00;0.00;;;16.30;95.20;;;;;;4012210;29;20055;-62
2022/10/26 08:51:10;;;;;;;0.00;0.00;;;16.40;95.20;;;;;;4011470;29;20509;-62
2022/10/26 08:53:57;;;;;;;0.22;0.22;;;16.40;95.20;;;;;;4013639;29;20060;-62
2022/10/26 08:56:40;;;;;;;1.05;1.05;;;16.40;95.10;;;;;;4013760;29;20515;-62
2022/10/26 08:59:33;;;;;;;0.30;0.30;;;16.40;95.10;;;;;;4014209;29;20049;-62
2022/10/26 09:02:16;;;;;;;0.10;0.10;;;16.40;95.00;;;;;;4014678;29;20117;-62
2022/10/26 09:04:59;;;;;;;0.00;0.00;;;16.40;95.00;;;;;;4013480;29;20060;-62
2022/10/26 09:07:54;;;;;;;0.17;0.17;;;16.40;94.90;;;;;;4002578;29;20097;-62
2022/10/26 09:10:40;;;;;;;0.00;0.00;;;16.50;94.90;;;;;;4014545;29;20056;-61
2022/10/26 09:13:28;;;;;;;0.47;0.47;;;16.50;94.80;;;;;;4013861;29;20060;-62
2022/10/26 09:16:20;;;;;;;0.10;0.10;;;16.50;94.80;;;;;;4013755;29;20606;-62
2022/10/26 09:19:35;;;;;;;0.63;0.63;;;16.50;94.70;;;;;;4002412;29;20060;-62
2022/10/26 09:22:24;;;;;;;0.20;0.20;;;16.50;94.60;;;;;;4014058;29;20654;-62
2022/10/26 09:25:16;;;;;;;0.10;0.10;;;16.50;94.60;;;;;;4013805;29;20120;-62
2022/10/26 09:28:01;;;;;;;0.00;0.00;;;16.50;94.60;;;;;;4013884;29;20068;-62
2022/10/26 09:30:44;;;;;;;0.55;0.55;;;16.50;94.90;;;;;;4013751;29;20068;-61
2022/10/26 09:33:25;;;;;;;1.65;0.95;;;16.50;94.50;;;;;;4013162;29;20060;-62
2022/10/26 09:36:09;;;;;;;0.00;0.00;;;16.50;94.50;;;;;;4013450;29;20096;-62
2022/10/26 09:38:58;;;;;;;0.50;0.50;;;16.60;94.50;;;;;;4013156;29;20562;-61
2022/10/26 09:41:42;;;;;;;0.00;0.00;;;16.60;94.50;;;;;;4002184;29;20057;-62
2022/10/26 09:44:29;;;;;;;0.00;0.00;;;16.60;94.40;;;;;;4002261;29;20137;-62
2022/10/26 09:47:15;;;;;;;0.75;0.75;;;16.60;94.40;;;;;;4013396;29;20087;-62
2022/10/26 09:50:01;;;;;;;0.10;0.10;;;16.60;94.40;;;;;;4013170;29;20466;-61
2022/10/26 09:52:43;;;;;;;0.52;0.52;;;16.60;94.30;;;;;;4013855;29;20076;-62
2022/10/26 09:55:26;;;;;;;0.00;0.00;;;16.60;94.30;;;;;;4013563;29;20053;-62
2022/10/26 09:58:12;;;;;;;0.38;0.30;;;16.60;94.20;;;;;;4013494;29;20057;-62
2022/10/26 10:00:55;;;;;;;0.00;0.00;;;16.70;94.20;;;;;;4013285;29;20053;-62
2022/10/26 10:03:36;;;;;;;1.98;1.35;;;16.70;94.20;;;;;;4012681;29;20064;-62
2022/10/26 10:06:19;;;;;;;0.28;0.28;;;16.70;94.30;;;;;;4011123;29;20497;-60
2022/10/26 10:09:10;;;;;;;0.63;0.63;;;16.70;94.30;;;;;;4011119;29;20064;-62
2022/10/26 10:11:57;;;;;;;0.20;0.20;;;16.70;94.50;;;;;;4013228;29;20068;-62
2022/10/26 10:14:55;;;;;;;0.90;0.90;;;16.80;94.50;;;;;;4013315;29;20097;-62
2022/10/26 10:17:37;;;;;;;0.10;0.10;;;16.80;94.40;;;;;;4013675;29;20241;-63
2022/10/26 10:20:20;;;;;;;0.17;0.17;;;16.80;94.40;;;;;;4012960;29;20052;-62
2022/10/26 10:23:03;;;;;;;0.00;0.00;;;16.80;94.30;;;;;;4012374;29;20121;-62
2022/10/26 10:25:44;;;;;;;0.00;0.00;;;16.80;94.30;;;;;;4013112;29;20076;-62
2022/10/26 10:28:27;;;;;;;0.45;0.45;;;16.80;94.20;;;;;;4013293;29;20565;-62
2022/10/26 10:31:20;;;;;;;0.52;0.52;;;16.90;94.30;;;;;;4013535;29;20866;-62
2022/10/26 10:34:16;;;;;;;0.73;0.73;;;16.90;94.70;;;;;;4011885;29;20198;-62
2022/10/26 10:36:58;;;;;;;0.32;0.28;;;16.90;94.30;;;;;;4013449;29;20055;-62
2022/10/26 10:39:41;;;;;;;0.00;0.00;;;17.00;94.20;;;;;;4012493;29;20614;-62
2022/10/26 10:42:25;;;;;;;1.27;1.17;;;17.00;94.10;;;;;;4012691;29;20076;-62
2022/10/26 10:45:19;;;;;;;1.70;1.60;;;17.00;94.10;;;;;;4012776;29;20417;-62
2022/10/26 10:48:02;;;;;;;0.00;0.00;;;17.00;94.00;;;;;;4015434;29;20052;-62
2022/10/26 10:50:55;;;;;;;0.10;0.10;;;17.00;94.00;;;;;;4015971;29;20072;-62
2022/10/26 10:53:44;;;;;;;0.00;0.00;;;17.10;94.00;;;;;;4015874;29;20049;-62
2022/10/26 10:56:47;;;;;;;0.00;0.00;;;17.10;93.90;;;;;;4015646;29;20064;-62
2022/10/26 10:59:39;;;;;;;0.30;0.30;;;17.10;93.90;;;;;;4015827;29;20133;-62
2022/10/26 11:02:50;;;;;;;0.00;0.00;;;17.10;93.80;;;;;;4015304;29;20088;-62
2022/10/26 11:05:54;;;;;;;0.00;0.00;;;17.10;93.80;;;;;;4014738;29;20064;-62
2022/10/26 11:08:42;;;;;;;0.00;0.00;;;17.10;93.70;;;;;;4015158;29;20072;-62
2022/10/26 11:11:27;;;;;;;0.00;0.00;;;17.10;93.80;;;;;;4015242;29;20060;-61
2022/10/26 11:14:14;;;;;;;0.32;0.32;;;17.10;93.80;;;;;;4015024;29;20060;-63
2022/10/26 11:16:59;;;;;;;0.35;0.30;;;17.10;93.90;;;;;;4014476;29;21023;-62
2022/10/26 11:19:43;;;;;;;1.90;1.60;;;17.10;93.80;;;;;;4015417;29;20057;-62
2022/10/26 11:22:33;;;;;;;0.00;0.00;;;17.10;93.90;;;;;;4014784;29;20545;-62
2022/10/26 11:25:17;;;;;;;3.00;1.63;;;17.10;93.90;;;;;;4015024;29;20075;-62
2022/10/26 11:28:03;;;;;;;0.00;0.00;;;17.10;94.00;;;;;;4014733;29;20056;-62
2022/10/26 11:30:47;;;;;;;4.47;1.55;;;17.20;94.00;;;;;;4003980;29;20070;-62
2022/10/26 11:33:34;;;;;;;4.22;1.55;;;17.20;94.10;;;;;;4014632;29;20061;-62
2022/10/26 11:36:18;;;;;;;0.80;0.80;;;17.20;94.10;;;;;;4015534;29;20064;-62
2022/10/26 11:39:16;;;;;;;4.95;3.13;;;17.20;94.10;;;;;;4015423;29;20056;-62
2022/10/26 11:42:03;;;;;;;0.40;0.40;;;17.20;94.10;;;;;;4014885;29;20064;-62
2022/10/26 11:44:49;;;;;;;1.08;1.08;;;17.20;94.10;;;;;;4015842;29;20061;-62
2022/10/26 11:47:39;;;;;;;0.10;0.10;;;17.20;94.00;;;;;;4015322;29;20405;-62
2022/10/26 11:50:23;;;;;;;0.00;0.00;;;17.20;94.00;;;;;;4015182;29;20129;-62
2022/10/26 11:53:12;;;;;;;0.10;0.10;;;17.30;93.90;;;;;;4015161;29;20068;-62
2022/10/26 11:55:56;;;;;;;0.00;0.00;;;17.30;93.90;;;;;;4015023;29;20570;-62
2022/10/26 11:58:38;;;;;;;1.40;1.35;;;17.30;93.90;;;;;;4014652;29;20052;-62
2022/10/26 12:01:20;;;;;;;0.00;0.00;;;17.30;93.90;;;;;;4015417;29;20708;-62
2022/10/26 12:04:03;;;;;;;0.30;0.30;;;17.40;93.90;;;;;;4015331;29;20060;-62
2022/10/26 12:06:45;;;;;;;0.10;0.10;;;17.40;94.30;;;;;;4030064;29;20064;-62
2022/10/26 12:09:30;;;;;;;0.00;0.00;;;17.40;93.80;;;;;;4030218;29;20190;-62
2022/10/26 12:12:21;;;;;;;0.10;0.10;;;17.40;93.80;;;;;;4016525;29;20056;-62
2022/10/26 12:15:14;;;;;;;0.55;0.45;;;17.50;93.90;;;;;;4015001;29;20190;-62
2022/10/26 12:18:01;;;;;;;0.35;0.35;;;17.50;93.90;;;;;;4033084;29;20559;-62
2022/10/26 12:21:01;;;;;;;0.00;0.00;;;17.50;94.30;;;;;;4014954;29;20313;-62
2022/10/26 12:23:55;;;;;;;0.40;0.40;;;17.50;93.90;;;;;;3999472;29;20074;-62
2022/10/26 12:26:40;;;;;;;0.00;0.00;;;17.50;93.90;;;;;;4012488;29;20056;-62
2022/10/26 12:29:36;;;;;;;0.00;0.00;;;17.50;93.90;;;;;;4014870;29;20056;-62
2022/10/26 12:32:52;;;;;;;0.90;0.90;;;17.60;94.30;;;;;;4029362;29;20211;-62
2022/10/26 12:35:45;;;;;;;1.95;1.85;;;17.60;94.00;;;;;;4014490;29;20402;-62
2022/10/26 12:38:56;;;;;;;0.57;0.57;;;17.60;93.90;;;;;;4014293;29;20157;-62
2022/10/26 12:41:38;;;;;;;0.10;0.10;;;17.60;94.00;;;;;;4014675;29;20076;-62
2022/10/26 12:44:36;;;;;;;1.15;1.13;;;17.60;94.00;;;;;;4014824;29;20208;-63
2022/10/26 12:47:50;;;;;;;0.52;0.38;;;17.60;93.90;;;;;;4014225;29;20064;-62
2022/10/26 12:50:32;;;;;;;0.00;0.00;;;17.60;93.90;;;;;;4014453;29;20179;-62
2022/10/26 12:53:15;;;;;;;0.00;0.00;;;17.70;93.80;;;;;;4012811;29;20233;-62
2022/10/26 12:56:09;;;;;;;0.10;0.10;;;17.70;93.90;;;;;;4014865;29;20075;-62
2022/10/26 12:59:16;;;;;;;0.00;0.00;;;17.70;93.80;;;;;;4029375;29;20169;-62
2022/10/26 13:02:21;;;;;;;0.00;0.00;;;17.70;93.80;;;;;;4029248;29;20059;-63
2022/10/26 13:05:32;;;;;;;0.00;0.00;;;17.80;93.80;;;;;;4028791;29;20059;-62
2022/10/26 13:08:14;;;;;;;0.30;0.30;;;17.80;93.80;;;;;;4003669;29;20052;-63
2022/10/26 13:11:04;;;;;;;0.00;0.00;;;17.80;93.80;;;;;;4013801;29;21027;-62
2022/10/26 13:13:51;;;;;;;0.47;0.47;;;17.80;93.80;;;;;;4029502;29;20071;-62
2022/10/26 13:16:32;;;;;;;0.73;0.73;;;17.80;93.80;;;;;;3999905;29;20084;-63
2022/10/26 13:19:26;;;;;;;0.00;0.00;;;17.80;93.80;;;;;;4011541;29;20129;-62
2022/10/26 13:22:14;;;;;;;0.00;0.00;;;17.80;93.80;;;;;;4009776;29;20057;-63
2022/10/26 13:25:00;;;;;;;0.00;0.00;;;17.80;93.80;;;;;;3998944;29;20162;-62
2022/10/26 13:27:43;;;;;;;0.00;0.00;;;17.80;93.70;;;;;;3999116;29;20144;-62
2022/10/26 13:30:51;;;;;;;0.00;0.00;;;17.80;93.80;;;;;;4004109;29;20149;-62
2022/10/26 13:33:37;;;;;;;0.00;0.00;;;17.80;94.10;;;;;;4023324;29;20566;-62
2022/10/26 13:36:29;;;;;;;0.60;0.60;;;17.80;93.80;;;;;;4018477;29;20421;-63
2022/10/26 13:39:12;;;;;;;;;;;17.90;93.80;;;;;;4027195;29;20064;-63
2022/10/26 13:41:57;;;;;;;0.00;0.00;;;17.90;93.80;;;;;;4013599;29;19935;-62
2022/10/26 13:44:42;;;;;;;0.00;0.00;;;17.90;93.80;;;;;;4003413;29;20084;-62
2022/10/26 13:47:27;;;;;;;0.22;0.22;;;17.90;93.80;;;;;;4013518;29;20080;-62
2022/10/26 13:50:14;;;;;;;0.00;0.00;;;17.90;93.80;;;;;;4013658;29;20131;-62
2022/10/26 13:52:59;;;;;;;0.00;0.00;;;17.80;93.80;;;;;;4007662;29;20386;-62
2022/10/26 13:55:48;;;;;;;0.00;0.00;;;17.90;93.90;;;;;;4014014;29;20072;-62
2022/10/26 13:58:37;;;;;;;0.13;0.13;;;17.80;93.80;;;;;;3987277;29;20246;-62
2022/10/26 14:01:21;;;;;;;0.00;0.00;;;17.80;93.80;;;;;;3998716;29;20057;-62
2022/10/26 14:04:15;;;;;;;0.00;0.00;;;17.90;93.90;;;;;;3998707;29;20109;-62
2022/10/26 14:06:56;;;;;;;0.28;0.28;;;17.90;93.90;;;;;;3986360;29;20410;-62
2022/10/26 14:09:39;;;;;;;0.00;0.00;;;17.90;93.90;;;;;;3998756;29;20091;-62
2022/10/26 14:12:21;;;;;;;0.32;0.30;;;17.90;93.90;;;;;;3985470;29;20069;-62
2022/10/26 14:15:06;;;;;;;0.00;0.00;;;17.90;94.30;;;;;;3983910;29;20122;-63
2022/10/26 14:17:51;;;;;;;0.00;0.00;;;17.90;93.90;;;;;;3987655;29;20102;-63
2022/10/26 14:20:32;;;;;;;0.00;0.00;;;17.90;93.90;;;;;;3993550;29;20081;-62
2022/10/26 14:23:25;;;;;;;0.00;0.00;;;17.90;93.90;;;;;;4005112;29;20088;-62
2022/10/26 14:26:19;;;;;;;0.00;0.00;;;17.90;93.90;;;;;;4002221;29;20068;-62